createdAt,value
2022-08-03T00:01:38.611Z,15.10
2022-08-03T00:04:40.533Z,15.85
2022-08-03T00:07:42.469Z,15.75
2022-08-03T00:10:44.416Z,16.10
2022-08-03T00:13:46.466Z,17.88
2022-08-03T00:16:48.374Z,18.08
2022-08-03T00:19:50.354Z,18.85
2022-08-03T00:22:52.285Z,17.55
2022-08-03T00:25:54.231Z,18.08
2022-08-03T00:28:56.251Z,18.95
2022-08-03T00:32:00.250Z,17.70
2022-08-03T00:35:05.676Z,20.13
2022-08-03T00:38:11.827Z,18.70
2022-08-03T00:41:15.756Z,18.75
2022-08-03T00:44:17.767Z,18.63
2022-08-03T00:47:19.669Z,20.13
2022-08-03T00:50:23.675Z,21.17
2022-08-03T00:53:27.166Z,19.58
2022-08-03T00:56:29.074Z,22.95
2022-08-03T00:59:31.569Z,22.25
2022-08-03T01:02:33.658Z,23.33
2022-08-03T01:05:52.475Z,23.77
2022-08-03T01:09:16.121Z,25.42
2022-08-03T01:15:29.628Z,24.83
2022-08-03T01:18:53.883Z,26.23
2022-08-03T01:22:23.216Z,27.65
2022-08-03T01:25:36.681Z,29.58
2022-08-03T01:32:59.008Z,30.90
2022-08-03T01:35:44.310Z,30.55
2022-08-03T01:38:52.178Z,29.50
2022-08-03T01:41:59.710Z,29.98
2022-08-03T01:45:02.829Z,28.30
2022-08-03T01:48:07.266Z,30.27
2022-08-03T01:51:10.743Z,29.90
2022-08-03T01:54:13.654Z,30.15
2022-08-03T01:57:17.569Z,28.65
2022-08-03T02:00:19.743Z,27.67
2022-08-03T02:03:24.135Z,27.98
2022-08-03T02:07:01.911Z,27.20
2022-08-03T02:09:52.890Z,25.27
2022-08-03T02:12:55.590Z,25.20
2022-08-03T02:15:58.817Z,24.33
2022-08-03T02:22:06.251Z,23.33
2022-08-03T02:25:10.118Z,25.15
2022-08-03T02:28:19.404Z,22.48
2022-08-03T02:31:25.184Z,23.58
2022-08-03T02:34:29.732Z,22.00
2022-08-03T02:37:35.179Z,21.77
2022-08-03T02:40:38.832Z,21.30
2022-08-03T02:44:05.646Z,20.75
2022-08-03T02:47:10.453Z,19.75
2022-08-03T02:50:14.997Z,20.80
2022-08-03T02:53:18.403Z,19.40
2022-08-03T02:56:24.216Z,19.30
2022-08-03T02:59:29.956Z,20.58
2022-08-03T03:02:32.964Z,17.15
2022-08-03T03:05:51.851Z,17.48
2022-08-03T03:08:59.752Z,17.77
2022-08-03T03:12:03.293Z,17.75
2022-08-03T03:18:10.116Z,16.95
2022-08-03T03:21:13.197Z,16.10
2022-08-03T03:24:16.362Z,15.25
2022-08-03T03:27:18.804Z,15.23
2022-08-03T03:30:20.981Z,13.73
2022-08-03T03:33:23.164Z,13.27
2022-08-03T03:36:25.145Z,11.88
2022-08-03T03:39:28.404Z,13.43
2022-08-03T03:45:32.532Z,13.05
2022-08-03T03:48:34.545Z,11.60
2022-08-03T03:51:36.566Z,13.00
2022-08-03T03:54:42.339Z,12.90
2022-08-03T03:57:44.535Z,11.63
2022-08-03T04:00:46.525Z,13.88
2022-08-03T04:03:48.594Z,13.85
2022-08-03T04:07:09.378Z,14.85
2022-08-03T04:10:35.307Z,14.38
2022-08-03T04:13:45.985Z,15.40
2022-08-03T04:16:59.097Z,14.27
2022-08-03T04:20:03.504Z,14.32
2022-08-03T04:23:13.518Z,13.52
2022-08-03T04:26:25.689Z,13.13
2022-08-03T04:29:31.381Z,13.02
2022-08-03T04:32:35.794Z,13.50
2022-08-03T04:36:01.070Z,13.88
2022-08-03T04:39:06.971Z,12.57
2022-08-03T04:42:12.789Z,12.48
2022-08-03T04:45:16.443Z,12.68
2022-08-03T04:48:20.128Z,13.43
2022-08-03T04:51:22.253Z,12.00
2022-08-03T04:54:24.172Z,13.25
2022-08-03T04:57:26.058Z,13.82
2022-08-03T05:00:28.983Z,13.18
2022-08-03T05:03:31.929Z,14.10
2022-08-03T05:06:34.080Z,13.88
2022-08-03T05:09:50.826Z,13.38
2022-08-03T05:12:54.903Z,14.65
2022-08-03T05:15:56.839Z,15.77
2022-08-03T05:18:58.773Z,15.48
2022-08-03T05:22:00.916Z,16.23
2022-08-03T05:25:03.677Z,15.85
2022-08-03T05:28:05.597Z,15.90
2022-08-03T05:31:07.626Z,16.50
2022-08-03T05:34:09.501Z,17.13
2022-08-03T05:37:11.959Z,17.52
2022-08-03T05:40:14.685Z,18.00
2022-08-03T05:43:17.957Z,18.52
2022-08-03T05:49:23.392Z,18.45
2022-08-03T05:52:25.378Z,20.67
2022-08-03T05:55:27.699Z,21.08
2022-08-03T05:58:29.961Z,20.38
2022-08-03T06:01:33.267Z,22.13
2022-08-03T06:07:37.213Z,24.15
2022-08-03T06:10:39.395Z,23.75
2022-08-03T06:13:41.711Z,22.35
2022-08-03T06:16:43.662Z,22.33
2022-08-03T06:19:45.667Z,21.52
2022-08-03T06:22:51.345Z,19.55
2022-08-03T06:26:03.111Z,16.65
2022-08-03T06:29:05.005Z,16.20
2022-08-03T06:32:10.613Z,16.55
2022-08-03T06:35:12.590Z,17.05
2022-08-03T06:38:14.517Z,16.50
2022-08-03T06:41:16.492Z,15.90
2022-08-03T06:44:18.451Z,13.60
2022-08-03T06:47:20.370Z,16.70
2022-08-03T06:50:25.988Z,16.70
2022-08-03T06:53:28.267Z,18.77
2022-08-03T06:56:30.219Z,19.92
2022-08-03T07:00:08.498Z,18.63
2022-08-03T07:02:58.035Z,20.00
2022-08-03T07:06:00.865Z,24.15
2022-08-03T07:09:03.020Z,23.33
2022-08-03T07:12:06.615Z,23.67
2022-08-03T07:15:09.506Z,25.50
2022-08-03T07:18:24.592Z,26.33
2022-08-03T07:21:32.004Z,28.08
2022-08-03T07:24:33.931Z,28.88
2022-08-03T07:27:36.135Z,30.35
2022-08-03T07:30:38.041Z,33.08
2022-08-03T07:33:40.029Z,31.83
2022-08-03T07:36:41.927Z,32.00
2022-08-03T07:39:43.965Z,31.67
2022-08-03T07:42:45.846Z,34.33
2022-08-03T07:45:47.914Z,34.85
2022-08-03T07:48:49.823Z,32.90
2022-08-03T07:52:11.751Z,30.92
2022-08-03T07:55:14.076Z,32.88
2022-08-03T07:58:21.930Z,31.50
2022-08-03T08:01:26.042Z,31.00
2022-08-03T08:04:28.017Z,30.65
2022-08-03T08:07:29.972Z,33.92
2022-08-03T08:10:32.962Z,34.15
2022-08-03T08:13:35.239Z,31.77
2022-08-03T08:16:37.282Z,32.50
2022-08-03T08:19:39.191Z,33.15
2022-08-03T08:22:53.624Z,34.15
2022-08-03T08:25:56.205Z,33.05
2022-08-03T08:28:58.109Z,33.10
2022-08-03T08:32:00.074Z,31.90
2022-08-03T08:35:02.003Z,30.33
2022-08-03T08:38:05.597Z,29.73
2022-08-03T08:41:08.892Z,36.63
2022-08-03T08:44:10.963Z,34.97
2022-08-03T08:47:14.283Z,34.30
2022-08-03T08:50:27.922Z,30.52
2022-08-03T08:53:32.850Z,24.98
2022-08-03T08:56:35.952Z,26.00
2022-08-03T09:02:51.145Z,17.75
2022-08-03T09:05:56.074Z,18.63
2022-08-03T09:08:58.368Z,17.73
2022-08-03T09:12:14.566Z,19.33
2022-08-03T09:15:31.683Z,18.77
2022-08-03T09:18:35.904Z,16.50
2022-08-03T09:21:37.830Z,17.48
2022-08-03T09:25:22.844Z,17.67
2022-08-03T09:28:52.834Z,15.82
2022-08-03T09:31:44.399Z,13.70
2022-08-03T09:34:54.230Z,14.68
2022-08-03T09:38:13.381Z,14.40
2022-08-03T09:41:19.933Z,14.43
2022-08-03T09:44:42.322Z,14.32
2022-08-03T09:47:45.139Z,12.73
2022-08-03T09:50:58.397Z,12.05
2022-08-03T09:54:25.889Z,12.32
2022-08-03T09:57:30.701Z,12.98
2022-08-03T10:00:32.609Z,11.40
2022-08-03T10:04:03.182Z,11.43
2022-08-03T10:07:11.805Z,12.18
2022-08-03T10:10:30.938Z,11.60
2022-08-03T10:13:34.371Z,11.75
2022-08-03T10:16:40.618Z,11.52
2022-08-03T10:19:42.633Z,11.65
2022-08-03T10:22:44.842Z,11.43
2022-08-03T10:25:48.466Z,10.03
2022-08-03T10:28:53.995Z,10.05
2022-08-03T10:32:00.381Z,10.65
2022-08-03T10:35:21.070Z,9.98
2022-08-03T10:38:47.964Z,11.40
2022-08-03T10:41:51.329Z,12.38
2022-08-03T10:45:07.637Z,12.27
2022-08-03T10:48:10.529Z,11.15
2022-08-03T10:51:13.668Z,11.30
2022-08-03T10:55:03.592Z,11.30
2022-08-03T10:58:11.358Z,12.98
2022-08-03T11:01:13.953Z,12.40
2022-08-03T11:04:20.607Z,11.13
2022-08-03T11:07:24.623Z,11.40
2022-08-03T11:10:33.095Z,11.93
2022-08-03T11:13:35.268Z,10.98
2022-08-03T11:17:15.274Z,13.43
2022-08-03T11:20:37.249Z,15.07
2022-08-03T11:24:02.934Z,14.25
2022-08-03T11:27:19.483Z,12.68
2022-08-03T11:30:21.500Z,10.50
2022-08-03T11:33:30.807Z,10.82
2022-08-03T11:37:11.333Z,11.38
2022-08-03T11:40:37.243Z,9.77
2022-08-03T11:43:45.258Z,10.23
2022-08-03T11:46:47.717Z,10.82
2022-08-03T11:49:51.261Z,12.77
2022-08-03T11:52:54.241Z,14.70
2022-08-03T11:59:20.723Z,14.85
2022-08-03T12:02:23.685Z,15.55
2022-08-03T12:05:40.547Z,16.63
2022-08-03T12:08:43.954Z,16.77
2022-08-03T12:11:51.628Z,17.20
2022-08-03T12:15:03.641Z,16.13
2022-08-03T12:18:15.344Z,17.52
2022-08-03T12:21:18.883Z,17.35
2022-08-03T12:24:20.913Z,16.90
2022-08-03T12:27:25.308Z,17.38
2022-08-03T12:30:27.774Z,16.60
2022-08-03T12:33:29.782Z,15.48
2022-08-03T12:36:35.069Z,14.30
2022-08-03T12:39:37.308Z,15.50
2022-08-03T12:42:59.317Z,14.98
2022-08-03T12:46:12.777Z,14.00
2022-08-03T12:49:18.695Z,13.60
2022-08-03T12:52:22.909Z,12.63
2022-08-03T12:55:56.551Z,14.45
2022-08-03T12:58:55.678Z,13.13
2022-08-03T13:01:58.121Z,14.70
2022-08-03T13:05:11.668Z,11.60
2022-08-03T13:08:24.468Z,12.57
2022-08-03T13:11:47.631Z,12.02
2022-08-03T13:17:53.189Z,13.77
2022-08-03T13:20:55.157Z,13.07
2022-08-03T13:23:57.050Z,12.73
2022-08-03T13:27:00.478Z,13.85
2022-08-03T13:30:03.922Z,12.25
2022-08-03T13:33:08.731Z,10.50
2022-08-03T13:36:10.657Z,11.07
2022-08-03T13:39:13.943Z,10.18
2022-08-03T13:42:16.165Z,10.57
2022-08-03T13:45:18.124Z,9.23
2022-08-03T13:48:36.841Z,7.80
2022-08-03T13:51:39.513Z,7.70
2022-08-03T13:54:41.435Z,8.93
2022-08-03T13:58:05.336Z,9.25
2022-08-03T14:01:10.175Z,10.50
2022-08-03T14:04:21.518Z,9.80
2022-08-03T14:07:24.236Z,6.88
2022-08-03T14:10:26.380Z,9.77
2022-08-03T14:13:28.304Z,9.48
2022-08-03T14:16:30.280Z,10.07
2022-08-03T14:19:52.519Z,10.32
2022-08-03T14:22:56.249Z,10.43
2022-08-03T14:25:58.161Z,8.80
2022-08-03T14:29:00.344Z,9.57
2022-08-03T14:32:11.664Z,11.00
2022-08-03T14:35:15.252Z,11.85
2022-08-03T14:38:18.125Z,8.60
2022-08-03T14:41:20.356Z,9.77
2022-08-03T14:44:22.307Z,8.65
2022-08-03T14:47:24.428Z,7.38
2022-08-03T14:50:40.534Z,7.25
2022-08-03T14:53:45.035Z,8.85
2022-08-03T14:56:46.999Z,8.88
2022-08-03T14:59:56.359Z,9.25
2022-08-03T15:02:59.140Z,9.35
2022-08-03T15:06:01.120Z,8.25
2022-08-03T15:12:25.399Z,10.95
2022-08-03T15:15:27.317Z,10.73
2022-08-03T15:18:29.364Z,10.07
2022-08-03T15:21:46.979Z,9.70
2022-08-03T15:24:50.069Z,11.65
2022-08-03T15:28:03.959Z,11.95
2022-08-03T15:31:07.027Z,12.65
2022-08-03T15:34:09.013Z,11.32
2022-08-03T15:37:16.221Z,9.18
2022-08-03T15:40:18.539Z,10.07
2022-08-03T15:43:21.686Z,0.43
2022-08-03T15:49:32.718Z,0.85
2022-08-03T15:52:36.285Z,0.73
2022-08-03T15:55:38.244Z,0.95
2022-08-03T15:59:09.157Z,0.30
2022-08-03T16:02:02.393Z,0.80
2022-08-03T16:05:04.750Z,0.85
2022-08-03T16:08:10.394Z,0.70
2022-08-03T16:11:16.104Z,0.88
2022-08-03T16:14:34.350Z,0.60
2022-08-03T16:17:40.808Z,0.63
2022-08-03T16:20:44.849Z,1.35
2022-08-03T16:23:47.610Z,0.82
2022-08-03T16:26:49.573Z,0.55
2022-08-03T16:29:51.595Z,0.68
2022-08-03T16:32:53.614Z,1.17
2022-08-03T16:35:55.532Z,0.85
2022-08-03T16:38:57.575Z,0.93
2022-08-03T16:42:01.247Z,1.27
2022-08-03T16:45:07.963Z,1.50
2022-08-03T16:48:10.321Z,1.02
2022-08-03T16:51:12.522Z,0.60
2022-08-03T16:54:15.581Z,0.73
2022-08-03T16:57:58.853Z,0.60
2022-08-03T17:00:43.113Z,0.70
2022-08-03T17:04:02.087Z,1.13
2022-08-03T17:07:07.004Z,0.60
2022-08-03T17:10:12.435Z,1.08
2022-08-03T17:13:21.785Z,0.93
2022-08-03T17:16:24.753Z,0.57
2022-08-03T17:19:30.746Z,1.40
2022-08-03T17:22:38.925Z,1.73
2022-08-03T17:26:02.424Z,1.17
2022-08-03T17:29:11.212Z,0.88
2022-08-03T17:32:21.178Z,1.13
2022-08-03T17:35:23.975Z,1.23
2022-08-03T17:38:26.342Z,0.90
2022-08-03T17:41:38.071Z,0.82
2022-08-03T17:44:53.140Z,1.42
2022-08-03T17:47:57.730Z,0.70
2022-08-03T17:51:28.221Z,0.45
2022-08-03T17:55:57.715Z,0.93
2022-08-03T17:58:23.621Z,0.80
2022-08-03T18:02:12.260Z,0.52
2022-08-03T18:06:10.956Z,0.93
2022-08-03T18:08:57.840Z,1.30
2022-08-03T18:12:06.349Z,0.80
2022-08-03T18:15:21.350Z,0.90
2022-08-03T18:18:44.047Z,2.15
2022-08-03T18:22:02.905Z,1.02
2022-08-03T18:25:07.727Z,0.82
2022-08-03T18:28:13.997Z,1.17
2022-08-03T18:32:00.435Z,1.10
2022-08-03T18:34:41.127Z,0.60
2022-08-03T18:37:56.464Z,0.80
2022-08-03T18:41:02.986Z,0.47
2022-08-03T18:44:46.564Z,0.50
2022-08-03T18:48:05.099Z,1.80
2022-08-03T18:51:28.452Z,1.33
2022-08-03T18:54:51.035Z,0.70
2022-08-03T18:58:02.922Z,0.60
2022-08-03T19:01:58.997Z,0.93
2022-08-03T19:05:06.669Z,1.15
2022-08-03T19:08:18.018Z,0.63
2022-08-03T19:12:14.501Z,0.93
2022-08-03T19:15:10.424Z,2.35
2022-08-03T19:18:17.926Z,0.43
2022-08-03T19:21:20.420Z,1.42
2022-08-03T19:24:26.311Z,0.93
2022-08-03T19:27:30.842Z,1.23
2022-08-03T19:30:46.301Z,0.85
2022-08-03T19:33:58.347Z,0.82
2022-08-03T19:37:01.236Z,0.65
2022-08-03T19:40:04.971Z,0.85
2022-08-03T19:43:53.040Z,0.68
2022-08-03T19:47:06.626Z,1.17
2022-08-03T19:50:14.149Z,1.30
2022-08-03T19:53:16.999Z,2.28
2022-08-03T19:56:23.066Z,1.90
2022-08-03T19:59:26.411Z,1.25
2022-08-03T20:02:29.699Z,1.58
2022-08-03T20:05:45.114Z,1.20
2022-08-03T20:08:54.130Z,0.40
2022-08-03T20:11:57.320Z,2.00
2022-08-03T20:15:00.938Z,1.15
2022-08-03T20:18:02.984Z,1.50
2022-08-03T20:21:14.766Z,1.80
2022-08-03T20:24:24.720Z,1.33
2022-08-03T20:27:30.187Z,1.58
2022-08-03T20:30:32.392Z,1.25
2022-08-03T20:36:56.540Z,2.03
2022-08-03T20:40:02.462Z,2.22
2022-08-03T20:43:04.983Z,1.35
2022-08-03T20:46:32.188Z,1.42
2022-08-03T20:49:29.443Z,1.88
2022-08-03T20:52:49.417Z,1.92
2022-08-03T20:56:02.571Z,1.85
2022-08-03T20:59:07.066Z,2.40
2022-08-03T21:02:19.535Z,2.38
2022-08-03T21:05:48.426Z,0.85
2022-08-03T21:09:03.796Z,1.92
2022-08-03T21:12:13.182Z,1.25
2022-08-03T21:13:07.168Z,2.00
2022-08-03T21:16:02.900Z,1.95
2022-08-03T21:18:49.024Z,1.48
2022-08-03T21:21:51.973Z,1.90
2022-08-03T21:24:57.385Z,2.28
2022-08-03T21:28:01.053Z,1.88
2022-08-03T21:31:03.593Z,2.25
2022-08-03T21:34:05.971Z,2.17
2022-08-03T21:37:08.164Z,0.70
2022-08-03T21:40:12.597Z,1.10
2022-08-03T21:43:14.681Z,1.85
2022-08-03T21:46:19.841Z,1.98
2022-08-03T21:50:06.953Z,0.80
2022-08-03T21:52:48.453Z,1.40
2022-08-03T21:56:12.251Z,1.15
2022-08-03T21:59:19.248Z,0.95
2022-08-03T22:02:26.808Z,1.85
2022-08-03T22:05:43.715Z,0.47
2022-08-03T22:08:48.155Z,1.40
2022-08-03T22:11:54.211Z,1.98
2022-08-03T22:15:00.362Z,1.40
2022-08-03T22:18:04.967Z,1.17
2022-08-03T22:24:11.129Z,1.17
2022-08-03T22:27:31.635Z,1.00
2022-08-03T22:30:34.643Z,0.82
2022-08-03T22:33:37.804Z,1.45
2022-08-03T22:36:40.811Z,1.38
2022-08-03T22:39:43.684Z,1.42
2022-08-03T22:42:49.394Z,2.05
2022-08-03T22:46:09.363Z,3.67
2022-08-03T22:49:14.674Z,1.17
2022-08-03T22:52:17.536Z,1.38
2022-08-03T22:55:25.050Z,1.05
2022-08-03T22:58:27.338Z,1.52
2022-08-03T23:01:31.098Z,0.95
2022-08-03T23:04:35.469Z,1.45
2022-08-03T23:07:39.652Z,1.60
2022-08-03T23:10:46.984Z,1.10
2022-08-03T23:13:54.159Z,1.08
2022-08-03T23:16:58.366Z,1.27
2022-08-03T23:20:08.273Z,0.63
2022-08-03T23:23:11.514Z,1.15
2022-08-03T23:26:17.690Z,1.08
2022-08-03T23:29:21.759Z,2.22
2022-08-03T23:32:26.236Z,1.00
2022-08-03T23:36:18.668Z,1.33
2022-08-03T23:39:09.799Z,1.00
2022-08-03T23:42:16.725Z,1.40
2022-08-03T23:45:20.173Z,1.58
2022-08-03T23:48:22.285Z,0.68
2022-08-03T23:51:35.524Z,1.45
2022-08-03T23:55:16.265Z,1.02
2022-08-03T23:58:35.196Z,1.90
